sensor_id;sensor_type;location;lat;lon;timestamp;temperature;humidity
7167;DHT22;3625;51.762;14.320;2022-10-04T00:00:11;12.70;99.90
7167;DHT22;3625;51.762;14.320;2022-10-04T00:03:04;13.80;99.90
7167;DHT22;3625;51.762;14.320;2022-10-04T00:05:36;12.70;99.90
7167;DHT22;3625;51.762;14.320;2022-10-04T00:08:21;12.70;99.90
7167;DHT22;3625;51.762;14.320;2022-10-04T00:11:03;12.70;99.90
7167;DHT22;3625;51.762;14.320;2022-10-04T00:13:35;12.70;99.90
7167;DHT22;3625;51.762;14.320;2022-10-04T00:16:06;12.70;99.90
7167;DHT22;3625;51.762;14.320;2022-10-04T00:18:47;12.70;99.90
7167;DHT22;3625;51.762;14.320;2022-10-04T00:21:15;12.60;99.90
7167;DHT22;3625;51.762;14.320;2022-10-04T00:23:45;12.70;99.90
7167;DHT22;3625;51.762;14.320;2022-10-04T00:29:49;12.70;99.90
7167;DHT22;3625;51.762;14.320;2022-10-04T00:32:47;12.70;99.90
7167;DHT22;3625;51.762;14.320;2022-10-04T00:35:55;12.70;99.90
7167;DHT22;3625;51.762;14.320;2022-10-04T00:38:25;12.70;99.90
7167;DHT22;3625;51.762;14.320;2022-10-04T00:41:00;12.70;99.90
7167;DHT22;3625;51.762;14.320;2022-10-04T00:43:37;12.70;99.90
7167;DHT22;3625;51.762;14.320;2022-10-04T00:46:11;12.70;99.90
7167;DHT22;3625;51.762;14.320;2022-10-04T00:48:48;12.70;99.90
7167;DHT22;3625;51.762;14.320;2022-10-04T00:51:24;12.80;99.90
7167;DHT22;3625;51.762;14.320;2022-10-04T00:54:03;12.80;99.90
7167;DHT22;3625;51.762;14.320;2022-10-04T00:56:42;12.80;99.90
7167;DHT22;3625;51.762;14.320;2022-10-04T00:59:34;12.80;99.90
7167;DHT22;3625;51.762;14.320;2022-10-04T01:02:13;12.80;99.90
7167;DHT22;3625;51.762;14.320;2022-10-04T01:04:48;12.80;99.90
7167;DHT22;3625;51.762;14.320;2022-10-04T01:07:24;12.80;99.90
7167;DHT22;3625;51.762;14.320;2022-10-04T01:09:59;12.80;99.90
7167;DHT22;3625;51.762;14.320;2022-10-04T01:12:44;12.90;99.90
7167;DHT22;3625;51.762;14.320;2022-10-04T01:15:27;12.90;99.90
7167;DHT22;3625;51.762;14.320;2022-10-04T01:18:09;12.90;99.90
7167;DHT22;3625;51.762;14.320;2022-10-04T01:20:51;12.90;99.90
7167;DHT22;3625;51.762;14.320;2022-10-04T01:23:37;12.90;99.90
7167;DHT22;3625;51.762;14.320;2022-10-04T01:26:39;12.90;99.90
7167;DHT22;3625;51.762;14.320;2022-10-04T01:29:11;12.90;99.90
7167;DHT22;3625;51.762;14.320;2022-10-04T01:31:44;12.80;99.90
7167;DHT22;3625;51.762;14.320;2022-10-04T01:34:15;12.80;99.90
7167;DHT22;3625;51.762;14.320;2022-10-04T01:36:47;12.80;99.90
7167;DHT22;3625;51.762;14.320;2022-10-04T01:39:22;12.80;99.90
7167;DHT22;3625;51.762;14.320;2022-10-04T01:41:56;12.80;99.90
7167;DHT22;3625;51.762;14.320;2022-10-04T01:44:31;12.80;99.90
7167;DHT22;3625;51.762;14.320;2022-10-04T01:47:09;12.80;99.90
7167;DHT22;3625;51.762;14.320;2022-10-04T01:49:43;12.90;99.90
7167;DHT22;3625;51.762;14.320;2022-10-04T01:52:16;12.80;99.90
7167;DHT22;3625;51.762;14.320;2022-10-04T01:54:58;12.80;99.90
7167;DHT22;3625;51.762;14.320;2022-10-04T01:57:33;12.80;99.90
7167;DHT22;3625;51.762;14.320;2022-10-04T02:00:05;12.80;99.90
7167;DHT22;3625;51.762;14.320;2022-10-04T02:02:39;12.80;99.90
7167;DHT22;3625;51.762;14.320;2022-10-04T02:05:17;12.80;99.90
7167;DHT22;3625;51.762;14.320;2022-10-04T02:07:48;13.20;99.90
7167;DHT22;3625;51.762;14.320;2022-10-04T02:10:20;12.80;99.90
7167;DHT22;3625;51.762;14.320;2022-10-04T02:12:52;12.80;99.90
7167;DHT22;3625;51.762;14.320;2022-10-04T02:15:23;14.00;99.90
7167;DHT22;3625;51.762;14.320;2022-10-04T02:17:54;12.80;99.90
7167;DHT22;3625;51.762;14.320;2022-10-04T02:20:25;12.80;99.90
7167;DHT22;3625;51.762;14.320;2022-10-04T02:22:56;12.80;99.90
7167;DHT22;3625;51.762;14.320;2022-10-04T02:25:30;12.80;99.90
7167;DHT22;3625;51.762;14.320;2022-10-04T02:27:59;12.80;99.90
7167;DHT22;3625;51.762;14.320;2022-10-04T02:30:34;12.80;99.90
7167;DHT22;3625;51.762;14.320;2022-10-04T02:33:03;12.70;99.90
7167;DHT22;3625;51.762;14.320;2022-10-04T02:35:33;12.70;99.90
7167;DHT22;3625;51.762;14.320;2022-10-04T02:38:09;12.70;99.90
7167;DHT22;3625;51.762;14.320;2022-10-04T02:40:49;12.70;99.90
7167;DHT22;3625;51.762;14.320;2022-10-04T02:43:26;12.70;99.90
7167;DHT22;3625;51.762;14.320;2022-10-04T02:46:04;12.70;99.90
7167;DHT22;3625;51.762;14.320;2022-10-04T02:48:44;12.60;99.90
7167;DHT22;3625;51.762;14.320;2022-10-04T02:51:18;12.70;99.90
7167;DHT22;3625;51.762;14.320;2022-10-04T02:53:58;12.70;99.90
7167;DHT22;3625;51.762;14.320;2022-10-04T02:56:34;12.70;99.90
7167;DHT22;3625;51.762;14.320;2022-10-04T02:59:05;12.70;99.90
7167;DHT22;3625;51.762;14.320;2022-10-04T03:01:47;12.70;99.90
7167;DHT22;3625;51.762;14.320;2022-10-04T03:04:22;12.70;99.90
7167;DHT22;3625;51.762;14.320;2022-10-04T03:06:53;12.70;99.90
7167;DHT22;3625;51.762;14.320;2022-10-04T03:09:23;12.70;99.90
7167;DHT22;3625;51.762;14.320;2022-10-04T03:11:57;12.70;99.90
7167;DHT22;3625;51.762;14.320;2022-10-04T03:14:27;12.70;99.90
7167;DHT22;3625;51.762;14.320;2022-10-04T03:16:58;12.60;99.90
7167;DHT22;3625;51.762;14.320;2022-10-04T03:19:31;12.70;99.90
7167;DHT22;3625;51.762;14.320;2022-10-04T03:22:03;12.60;99.90
7167;DHT22;3625;51.762;14.320;2022-10-04T03:24:37;12.60;99.90
7167;DHT22;3625;51.762;14.320;2022-10-04T03:27:18;12.60;99.90
7167;DHT22;3625;51.762;14.320;2022-10-04T03:29:48;12.60;99.90
7167;DHT22;3625;51.762;14.320;2022-10-04T03:32:24;12.60;99.90
7167;DHT22;3625;51.762;14.320;2022-10-04T03:34:59;12.60;99.90
7167;DHT22;3625;51.762;14.320;2022-10-04T03:37:34;12.50;99.90
7167;DHT22;3625;51.762;14.320;2022-10-04T03:40:08;12.40;99.90
7167;DHT22;3625;51.762;14.320;2022-10-04T03:42:38;12.40;99.90
7167;DHT22;3625;51.762;14.320;2022-10-04T03:45:13;12.30;99.90
7167;DHT22;3625;51.762;14.320;2022-10-04T03:47:45;12.30;99.90
7167;DHT22;3625;51.762;14.320;2022-10-04T03:50:20;12.20;99.90
7167;DHT22;3625;51.762;14.320;2022-10-04T03:52:54;12.20;99.90
7167;DHT22;3625;51.762;14.320;2022-10-04T03:55:32;12.20;99.90
7167;DHT22;3625;51.762;14.320;2022-10-04T03:58:07;12.10;99.90
7167;DHT22;3625;51.762;14.320;2022-10-04T04:00:42;12.10;99.90
7167;DHT22;3625;51.762;14.320;2022-10-04T04:03:15;12.00;99.90
7167;DHT22;3625;51.762;14.320;2022-10-04T04:05:50;12.00;99.90
7167;DHT22;3625;51.762;14.320;2022-10-04T04:08:28;11.90;99.90
7167;DHT22;3625;51.762;14.320;2022-10-04T04:11:03;11.90;99.90
7167;DHT22;3625;51.762;14.320;2022-10-04T04:13:40;11.80;99.90
7167;DHT22;3625;51.762;14.320;2022-10-04T04:16:15;11.80;99.90
7167;DHT22;3625;51.762;14.320;2022-10-04T04:18:48;11.90;99.90
7167;DHT22;3625;51.762;14.320;2022-10-04T04:21:19;11.90;99.90
7167;DHT22;3625;51.762;14.320;2022-10-04T04:23:53;11.80;99.90
7167;DHT22;3625;51.762;14.320;2022-10-04T04:26:29;11.70;99.90
7167;DHT22;3625;51.762;14.320;2022-10-04T04:29:07;11.70;99.90
7167;DHT22;3625;51.762;14.320;2022-10-04T04:31:45;11.60;99.90
7167;DHT22;3625;51.762;14.320;2022-10-04T04:34:20;11.40;99.90
7167;DHT22;3625;51.762;14.320;2022-10-04T04:36:56;11.40;99.90
7167;DHT22;3625;51.762;14.320;2022-10-04T04:39:27;11.40;99.90
7167;DHT22;3625;51.762;14.320;2022-10-04T04:42:10;11.30;99.90
7167;DHT22;3625;51.762;14.320;2022-10-04T04:44:50;11.20;99.90
7167;DHT22;3625;51.762;14.320;2022-10-04T04:47:27;11.20;99.90
7167;DHT22;3625;51.762;14.320;2022-10-04T04:50:05;11.20;99.90
7167;DHT22;3625;51.762;14.320;2022-10-04T04:52:40;11.20;99.90
7167;DHT22;3625;51.762;14.320;2022-10-04T04:55:16;11.20;99.90
7167;DHT22;3625;51.762;14.320;2022-10-04T04:57:47;11.20;99.90
7167;DHT22;3625;51.762;14.320;2022-10-04T05:00:21;11.10;99.90
7167;DHT22;3625;51.762;14.320;2022-10-04T05:02:57;11.00;99.90
7167;DHT22;3625;51.762;14.320;2022-10-04T05:05:28;11.00;99.90
7167;DHT22;3625;51.762;14.320;2022-10-04T05:08:11;10.70;99.90
7167;DHT22;3625;51.762;14.320;2022-10-04T05:10:45;10.80;99.90
7167;DHT22;3625;51.762;14.320;2022-10-04T05:13:22;10.70;99.90
7167;DHT22;3625;51.762;14.320;2022-10-04T05:15:58;10.70;99.90
7167;DHT22;3625;51.762;14.320;2022-10-04T05:18:29;10.60;99.90
7167;DHT22;3625;51.762;14.320;2022-10-04T05:21:03;10.60;99.90
7167;DHT22;3625;51.762;14.320;2022-10-04T05:26:09;10.50;99.90
7167;DHT22;3625;51.762;14.320;2022-10-04T05:28:39;10.40;99.90
7167;DHT22;3625;51.762;14.320;2022-10-04T05:31:31;10.30;99.90
7167;DHT22;3625;51.762;14.320;2022-10-04T05:34:18;10.30;99.90
7167;DHT22;3625;51.762;14.320;2022-10-04T05:37:05;10.30;99.90
7167;DHT22;3625;51.762;14.320;2022-10-04T05:40:02;10.30;99.90
7167;DHT22;3625;51.762;14.320;2022-10-04T05:42:40;10.40;99.90
7167;DHT22;3625;51.762;14.320;2022-10-04T05:45:16;10.50;99.90
7167;DHT22;3625;51.762;14.320;2022-10-04T05:47:50;10.70;99.90
7167;DHT22;3625;51.762;14.320;2022-10-04T05:50:28;10.90;99.90
7167;DHT22;3625;51.762;14.320;2022-10-04T05:53:13;11.00;99.90
7167;DHT22;3625;51.762;14.320;2022-10-04T05:55:57;11.20;99.90
7167;DHT22;3625;51.762;14.320;2022-10-04T05:58:46;11.40;99.90
7167;DHT22;3625;51.762;14.320;2022-10-04T06:01:33;11.50;99.90
7167;DHT22;3625;51.762;14.320;2022-10-04T06:04:30;11.50;99.90
7167;DHT22;3625;51.762;14.320;2022-10-04T06:07:16;11.70;99.90
7167;DHT22;3625;51.762;14.320;2022-10-04T06:10:01;11.70;99.90
7167;DHT22;3625;51.762;14.320;2022-10-04T06:12:45;11.70;99.90
7167;DHT22;3625;51.762;14.320;2022-10-04T06:15:43;11.80;99.90
7167;DHT22;3625;51.762;14.320;2022-10-04T06:18:40;11.90;99.90
7167;DHT22;3625;51.762;14.320;2022-10-04T06:21:27;12.00;99.90
7167;DHT22;3625;51.762;14.320;2022-10-04T06:24:00;12.20;99.90
7167;DHT22;3625;51.762;14.320;2022-10-04T06:26:38;12.30;99.90
7167;DHT22;3625;51.762;14.320;2022-10-04T06:29:14;12.20;99.90
7167;DHT22;3625;51.762;14.320;2022-10-04T06:38:40;12.30;99.90
7167;DHT22;3625;51.762;14.320;2022-10-04T06:42:07;12.30;99.90
7167;DHT22;3625;51.762;14.320;2022-10-04T06:45:00;12.30;99.90
7167;DHT22;3625;51.762;14.320;2022-10-04T06:47:59;12.40;99.90
7167;DHT22;3625;51.762;14.320;2022-10-04T06:50:55;12.50;99.90
7167;DHT22;3625;51.762;14.320;2022-10-04T06:53:44;12.60;99.90
7167;DHT22;3625;51.762;14.320;2022-10-04T06:56:46;12.60;99.90
7167;DHT22;3625;51.762;14.320;2022-10-04T06:59:40;12.60;99.90
7167;DHT22;3625;51.762;14.320;2022-10-04T07:02:33;14.10;99.90
7167;DHT22;3625;51.762;14.320;2022-10-04T07:05:14;12.70;99.90
7167;DHT22;3625;51.762;14.320;2022-10-04T07:08:02;12.70;99.90
7167;DHT22;3625;51.762;14.320;2022-10-04T07:10:45;12.80;99.90
7167;DHT22;3625;51.762;14.320;2022-10-04T07:13:30;13.10;99.90
7167;DHT22;3625;51.762;14.320;2022-10-04T07:16:11;13.20;99.90
7167;DHT22;3625;51.762;14.320;2022-10-04T07:18:58;13.40;99.90
7167;DHT22;3625;51.762;14.320;2022-10-04T07:21:40;13.30;99.90
7167;DHT22;3625;51.762;14.320;2022-10-04T07:24:20;13.80;99.90
7167;DHT22;3625;51.762;14.320;2022-10-04T07:26:55;13.70;99.90
7167;DHT22;3625;51.762;14.320;2022-10-04T07:29:27;13.80;99.90
7167;DHT22;3625;51.762;14.320;2022-10-04T07:32:06;13.70;99.90
7167;DHT22;3625;51.762;14.320;2022-10-04T07:34:46;13.60;99.90
7167;DHT22;3625;51.762;14.320;2022-10-04T07:37:20;13.60;99.90
7167;DHT22;3625;51.762;14.320;2022-10-04T07:40:03;13.50;99.90
7167;DHT22;3625;51.762;14.320;2022-10-04T07:42:39;13.20;99.90
7167;DHT22;3625;51.762;14.320;2022-10-04T07:45:18;13.10;99.90
7167;DHT22;3625;51.762;14.320;2022-10-04T07:48:03;13.00;99.90
7167;DHT22;3625;51.762;14.320;2022-10-04T07:50:41;13.00;99.90
7167;DHT22;3625;51.762;14.320;2022-10-04T07:53:16;13.20;99.90
7167;DHT22;3625;51.762;14.320;2022-10-04T07:55:54;13.30;99.90
7167;DHT22;3625;51.762;14.320;2022-10-04T07:58:35;13.40;99.90
7167;DHT22;3625;51.762;14.320;2022-10-04T08:01:21;13.40;99.90
7167;DHT22;3625;51.762;14.320;2022-10-04T08:04:22;14.50;99.90
7167;DHT22;3625;51.762;14.320;2022-10-04T08:07:00;13.40;99.90
7167;DHT22;3625;51.762;14.320;2022-10-04T08:09:45;13.50;99.90
7167;DHT22;3625;51.762;14.320;2022-10-04T08:12:29;13.50;99.90
7167;DHT22;3625;51.762;14.320;2022-10-04T08:15:27;13.70;99.90
7167;DHT22;3625;51.762;14.320;2022-10-04T08:18:09;14.10;99.90
7167;DHT22;3625;51.762;14.320;2022-10-04T08:20:56;14.70;99.90
7167;DHT22;3625;51.762;14.320;2022-10-04T08:23:43;14.10;99.90
7167;DHT22;3625;51.762;14.320;2022-10-04T08:26:39;14.20;99.90
7167;DHT22;3625;51.762;14.320;2022-10-04T08:29:35;14.10;99.90
7167;DHT22;3625;51.762;14.320;2022-10-04T08:32:27;14.40;99.90
7167;DHT22;3625;51.762;14.320;2022-10-04T08:35:22;14.60;99.90
7167;DHT22;3625;51.762;14.320;2022-10-04T08:38:19;14.90;99.90
7167;DHT22;3625;51.762;14.320;2022-10-04T08:45:09;15.40;99.90
7167;DHT22;3625;51.762;14.320;2022-10-04T08:48:27;15.60;99.90
7167;DHT22;3625;51.762;14.320;2022-10-04T08:51:38;15.20;99.90
7167;DHT22;3625;51.762;14.320;2022-10-04T08:54:47;14.60;99.90
7167;DHT22;3625;51.762;14.320;2022-10-04T09:01:00;14.90;99.90
7167;DHT22;3625;51.762;14.320;2022-10-04T09:04:30;15.40;99.90
7167;DHT22;3625;51.762;14.320;2022-10-04T09:07:41;15.50;99.90
7167;DHT22;3625;51.762;14.320;2022-10-04T09:10:34;15.40;99.90
7167;DHT22;3625;51.762;14.320;2022-10-04T09:13:31;15.40;99.90
7167;DHT22;3625;51.762;14.320;2022-10-04T09:16:14;15.40;99.90
7167;DHT22;3625;51.762;14.320;2022-10-04T09:18:50;15.50;99.90
7167;DHT22;3625;51.762;14.320;2022-10-04T09:22:01;15.60;99.90
7167;DHT22;3625;51.762;14.320;2022-10-04T09:28:15;15.70;99.90
7167;DHT22;3625;51.762;14.320;2022-10-04T09:31:19;15.20;99.90
7167;DHT22;3625;51.762;14.320;2022-10-04T09:34:12;15.30;99.90
7167;DHT22;3625;51.762;14.320;2022-10-04T09:37:08;15.70;99.90
7167;DHT22;3625;51.762;14.320;2022-10-04T09:43:34;15.90;99.90
7167;DHT22;3625;51.762;14.320;2022-10-04T09:46:48;15.80;99.90
7167;DHT22;3625;51.762;14.320;2022-10-04T09:52:48;15.60;99.90
7167;DHT22;3625;51.762;14.320;2022-10-04T09:55:36;16.10;99.90
7167;DHT22;3625;51.762;14.320;2022-10-04T09:58:24;16.00;99.90
7167;DHT22;3625;51.762;14.320;2022-10-04T10:01:14;16.10;99.90
7167;DHT22;3625;51.762;14.320;2022-10-04T10:04:20;15.90;99.90
7167;DHT22;3625;51.762;14.320;2022-10-04T10:07:34;16.00;99.90
7167;DHT22;3625;51.762;14.320;2022-10-04T10:10:19;16.20;99.90
7167;DHT22;3625;51.762;14.320;2022-10-04T10:13:31;16.80;99.90
7167;DHT22;3625;51.762;14.320;2022-10-04T10:16:34;17.00;57.70
7167;DHT22;3625;51.762;14.320;2022-10-04T10:19:42;17.00;1.00
7167;DHT22;3625;51.762;14.320;2022-10-04T10:22:58;16.40;77.20
7167;DHT22;3625;51.762;14.320;2022-10-04T10:25:45;15.40;99.90
7167;DHT22;3625;51.762;14.320;2022-10-04T10:28:48;15.30;99.90
7167;DHT22;3625;51.762;14.320;2022-10-04T10:31:44;15.70;99.90
7167;DHT22;3625;51.762;14.320;2022-10-04T10:34:45;15.80;99.90
7167;DHT22;3625;51.762;14.320;2022-10-04T10:37:38;16.10;99.90
7167;DHT22;3625;51.762;14.320;2022-10-04T10:40:39;16.30;99.90
7167;DHT22;3625;51.762;14.320;2022-10-04T10:43:26;16.60;99.90
7167;DHT22;3625;51.762;14.320;2022-10-04T10:46:18;16.60;99.90
7167;DHT22;3625;51.762;14.320;2022-10-04T10:49:13;16.60;99.90
7167;DHT22;3625;51.762;14.320;2022-10-04T10:52:50;16.40;99.90
7167;DHT22;3625;51.762;14.320;2022-10-04T10:56:11;16.50;99.90
7167;DHT22;3625;51.762;14.320;2022-10-04T10:59:22;16.50;99.90
7167;DHT22;3625;51.762;14.320;2022-10-04T11:02:45;16.40;99.90
7167;DHT22;3625;51.762;14.320;2022-10-04T11:09:26;16.10;99.90
7167;DHT22;3625;51.762;14.320;2022-10-04T11:12:17;15.80;99.90
7167;DHT22;3625;51.762;14.320;2022-10-04T11:15:47;15.80;99.90
7167;DHT22;3625;51.762;14.320;2022-10-04T11:22:21;16.30;99.90
7167;DHT22;3625;51.762;14.320;2022-10-04T11:25:25;16.20;99.90
7167;DHT22;3625;51.762;14.320;2022-10-04T11:28:15;16.30;99.90
7167;DHT22;3625;51.762;14.320;2022-10-04T11:31:16;16.30;1.00
7167;DHT22;3625;51.762;14.320;2022-10-04T11:34:24;16.60;1.00
7167;DHT22;3625;51.762;14.320;2022-10-04T11:37:18;17.20;1.00
7167;DHT22;3625;51.762;14.320;2022-10-04T11:43:09;17.50;1.00
7167;DHT22;3625;51.762;14.320;2022-10-04T11:46:01;17.20;99.90
7167;DHT22;3625;51.762;14.320;2022-10-04T11:48:54;17.20;99.90
7167;DHT22;3625;51.762;14.320;2022-10-04T11:55:15;17.30;1.00
7167;DHT22;3625;51.762;14.320;2022-10-04T11:57:55;16.80;1.00
7167;DHT22;3625;51.762;14.320;2022-10-04T12:01:01;16.70;1.00
7167;DHT22;3625;51.762;14.320;2022-10-04T12:04:03;16.80;1.00
7167;DHT22;3625;51.762;14.320;2022-10-04T12:06:55;17.00;1.00
7167;DHT22;3625;51.762;14.320;2022-10-04T12:09:41;17.30;1.00
7167;DHT22;3625;51.762;14.320;2022-10-04T12:12:39;17.40;1.00
7167;DHT22;3625;51.762;14.320;2022-10-04T12:15:42;17.40;1.00
7167;DHT22;3625;51.762;14.320;2022-10-04T12:19:20;17.40;1.00
7167;DHT22;3625;51.762;14.320;2022-10-04T12:22:27;17.40;1.00
7167;DHT22;3625;51.762;14.320;2022-10-04T12:28:51;18.20;99.90
7167;DHT22;3625;51.762;14.320;2022-10-04T12:31:40;18.20;64.80
7167;DHT22;3625;51.762;14.320;2022-10-04T12:34:16;17.90;1.00
7167;DHT22;3625;51.762;14.320;2022-10-04T12:37:03;17.40;57.30
7167;DHT22;3625;51.762;14.320;2022-10-04T12:43:00;16.90;99.90
7167;DHT22;3625;51.762;14.320;2022-10-04T12:45:47;17.10;99.90
7167;DHT22;3625;51.762;14.320;2022-10-04T12:48:33;17.60;99.90
7167;DHT22;3625;51.762;14.320;2022-10-04T12:51:36;17.90;1.00
7167;DHT22;3625;51.762;14.320;2022-10-04T12:54:31;18.30;1.00
7167;DHT22;3625;51.762;14.320;2022-10-04T12:57:22;18.30;1.00
7167;DHT22;3625;51.762;14.320;2022-10-04T13:00:13;18.10;1.00
7167;DHT22;3625;51.762;14.320;2022-10-04T13:02:54;17.40;1.00
7167;DHT22;3625;51.762;14.320;2022-10-04T13:05:42;17.30;99.90
7167;DHT22;3625;51.762;14.320;2022-10-04T13:08:35;17.30;99.90
7167;DHT22;3625;51.762;14.320;2022-10-04T13:11:35;17.20;99.90
7167;DHT22;3625;51.762;14.320;2022-10-04T13:14:33;14.50;99.90
7167;DHT22;3625;51.762;14.320;2022-10-04T13:17:21;16.50;1.00
7167;DHT22;3625;51.762;14.320;2022-10-04T13:20:22;16.50;1.00
7167;DHT22;3625;51.762;14.320;2022-10-04T13:23:05;16.60;1.00
7167;DHT22;3625;51.762;14.320;2022-10-04T13:26:04;16.70;1.00
7167;DHT22;3625;51.762;14.320;2022-10-04T13:29:15;16.70;99.90
7167;DHT22;3625;51.762;14.320;2022-10-04T13:31:55;16.60;1.00
7167;DHT22;3625;51.762;14.320;2022-10-04T13:34:37;16.60;1.00
7167;DHT22;3625;51.762;14.320;2022-10-04T13:37:29;16.30;1.00
7167;DHT22;3625;51.762;14.320;2022-10-04T13:40:32;16.20;1.00
7167;DHT22;3625;51.762;14.320;2022-10-04T13:46:41;16.10;9.10
7167;DHT22;3625;51.762;14.320;2022-10-04T13:49:28;16.10;4.90
7167;DHT22;3625;51.762;14.320;2022-10-04T13:52:20;16.10;1.00
7167;DHT22;3625;51.762;14.320;2022-10-04T13:55:24;16.30;1.00
7167;DHT22;3625;51.762;14.320;2022-10-04T13:58:27;16.80;1.00
7167;DHT22;3625;51.762;14.320;2022-10-04T14:01:34;16.80;1.00
7167;DHT22;3625;51.762;14.320;2022-10-04T14:04:29;16.70;1.00
7167;DHT22;3625;51.762;14.320;2022-10-04T14:07:28;16.70;1.00
7167;DHT22;3625;51.762;14.320;2022-10-04T14:10:27;16.30;1.00
7167;DHT22;3625;51.762;14.320;2022-10-04T14:13:54;16.20;1.00
7167;DHT22;3625;51.762;14.320;2022-10-04T14:17:18;16.10;1.00
7167;DHT22;3625;51.762;14.320;2022-10-04T14:33:07;15.80;99.90
7167;DHT22;3625;51.762;14.320;2022-10-04T14:38:47;16.00;99.90
7167;DHT22;3625;51.762;14.320;2022-10-04T14:42:05;16.20;99.90
7167;DHT22;3625;51.762;14.320;2022-10-04T14:44:59;16.40;84.50
7167;DHT22;3625;51.762;14.320;2022-10-04T14:48:13;16.60;71.40
7167;DHT22;3625;51.762;14.320;2022-10-04T14:51:19;16.80;29.10
7167;DHT22;3625;51.762;14.320;2022-10-04T14:53:59;16.70;9.10
7167;DHT22;3625;51.762;14.320;2022-10-04T14:56:48;15.20;15.90
7167;DHT22;3625;51.762;14.320;2022-10-04T14:59:57;16.40;68.10
7167;DHT22;3625;51.762;14.320;2022-10-04T15:02:53;16.50;99.90
7167;DHT22;3625;51.762;14.320;2022-10-04T15:06:10;16.50;99.90
7167;DHT22;3625;51.762;14.320;2022-10-04T15:09:18;16.60;99.90
7167;DHT22;3625;51.762;14.320;2022-10-04T15:11:57;16.70;99.90
7167;DHT22;3625;51.762;14.320;2022-10-04T15:15:15;16.70;99.90
7167;DHT22;3625;51.762;14.320;2022-10-04T15:17:58;16.60;99.90
7167;DHT22;3625;51.762;14.320;2022-10-04T15:20:35;16.60;99.90
7167;DHT22;3625;51.762;14.320;2022-10-04T15:23:29;16.60;99.90
7167;DHT22;3625;51.762;14.320;2022-10-04T15:26:43;16.60;99.90
7167;DHT22;3625;51.762;14.320;2022-10-04T15:29:26;16.50;99.90
7167;DHT22;3625;51.762;14.320;2022-10-04T15:32:05;16.30;99.90
7167;DHT22;3625;51.762;14.320;2022-10-04T15:35:01;16.30;99.90
7167;DHT22;3625;51.762;14.320;2022-10-04T15:37:45;16.20;99.90
7167;DHT22;3625;51.762;14.320;2022-10-04T15:40:29;16.10;99.90
7167;DHT22;3625;51.762;14.320;2022-10-04T15:43:26;16.00;99.90
7167;DHT22;3625;51.762;14.320;2022-10-04T15:46:28;15.90;99.90
7167;DHT22;3625;51.762;14.320;2022-10-04T15:52:46;15.70;99.90
7167;DHT22;3625;51.762;14.320;2022-10-04T15:55:30;15.70;99.90
7167;DHT22;3625;51.762;14.320;2022-10-04T15:58:45;15.60;99.90
7167;DHT22;3625;51.762;14.320;2022-10-04T16:01:38;14.70;99.90
7167;DHT22;3625;51.762;14.320;2022-10-04T16:04:24;15.50;99.90
7167;DHT22;3625;51.762;14.320;2022-10-04T16:07:38;15.40;99.90
7167;DHT22;3625;51.762;14.320;2022-10-04T16:10:26;15.20;99.90
7167;DHT22;3625;51.762;14.320;2022-10-04T16:13:20;15.00;99.90
7167;DHT22;3625;51.762;14.320;2022-10-04T16:16:22;14.80;99.90
7167;DHT22;3625;51.762;14.320;2022-10-04T16:19:10;14.60;99.90
7167;DHT22;3625;51.762;14.320;2022-10-04T16:22:07;14.40;99.90
7167;DHT22;3625;51.762;14.320;2022-10-04T16:24:46;14.20;99.90
7167;DHT22;3625;51.762;14.320;2022-10-04T16:27:48;14.10;99.90
7167;DHT22;3625;51.762;14.320;2022-10-04T16:30:37;13.90;99.90
7167;DHT22;3625;51.762;14.320;2022-10-04T16:33:24;13.70;99.90
7167;DHT22;3625;51.762;14.320;2022-10-04T16:36:08;13.60;99.90
7167;DHT22;3625;51.762;14.320;2022-10-04T16:38:45;13.40;99.90
7167;DHT22;3625;51.762;14.320;2022-10-04T16:41:38;13.30;99.90
7167;DHT22;3625;51.762;14.320;2022-10-04T16:44:31;13.20;99.90
7167;DHT22;3625;51.762;14.320;2022-10-04T16:47:18;13.10;99.90
7167;DHT22;3625;51.762;14.320;2022-10-04T16:49:53;13.00;99.90
7167;DHT22;3625;51.762;14.320;2022-10-04T16:52:37;12.90;99.90
7167;DHT22;3625;51.762;14.320;2022-10-04T16:55:29;12.80;99.90
7167;DHT22;3625;51.762;14.320;2022-10-04T16:58:42;12.70;99.90
7167;DHT22;3625;51.762;14.320;2022-10-04T17:02:11;12.50;99.90
7167;DHT22;3625;51.762;14.320;2022-10-04T17:08:24;12.30;99.90
7167;DHT22;3625;51.762;14.320;2022-10-04T17:11:30;12.30;99.90
7167;DHT22;3625;51.762;14.320;2022-10-04T17:17:45;12.10;99.90
7167;DHT22;3625;51.762;14.320;2022-10-04T17:20:28;12.10;99.90
7167;DHT22;3625;51.762;14.320;2022-10-04T17:23:24;12.00;99.90
7167;DHT22;3625;51.762;14.320;2022-10-04T17:26:15;11.90;99.90
7167;DHT22;3625;51.762;14.320;2022-10-04T17:29:01;11.80;99.90
7167;DHT22;3625;51.762;14.320;2022-10-04T17:31:44;11.70;99.90
7167;DHT22;3625;51.762;14.320;2022-10-04T17:34:33;11.70;99.90
7167;DHT22;3625;51.762;14.320;2022-10-04T17:37:19;11.70;99.90
7167;DHT22;3625;51.762;14.320;2022-10-04T17:40:16;11.70;99.90
7167;DHT22;3625;51.762;14.320;2022-10-04T17:42:57;11.60;99.90
7167;DHT22;3625;51.762;14.320;2022-10-04T17:45:42;11.60;99.90
7167;DHT22;3625;51.762;14.320;2022-10-04T17:48:30;11.40;99.90
7167;DHT22;3625;51.762;14.320;2022-10-04T17:51:39;11.50;99.90
7167;DHT22;3625;51.762;14.320;2022-10-04T17:54:31;11.40;99.90
7167;DHT22;3625;51.762;14.320;2022-10-04T17:57:28;11.40;99.90
7167;DHT22;3625;51.762;14.320;2022-10-04T18:00:08;11.40;99.90
7167;DHT22;3625;51.762;14.320;2022-10-04T18:02:58;11.30;99.90
7167;DHT22;3625;51.762;14.320;2022-10-04T18:05:41;11.30;99.90
7167;DHT22;3625;51.762;14.320;2022-10-04T18:08:19;11.10;99.90
7167;DHT22;3625;51.762;14.320;2022-10-04T18:10:57;11.20;99.90
7167;DHT22;3625;51.762;14.320;2022-10-04T18:13:31;11.20;99.90
7167;DHT22;3625;51.762;14.320;2022-10-04T18:16:13;11.10;99.90
7167;DHT22;3625;51.762;14.320;2022-10-04T18:21:23;11.00;99.90
7167;DHT22;3625;51.762;14.320;2022-10-04T18:23:58;11.00;99.90
7167;DHT22;3625;51.762;14.320;2022-10-04T18:26:53;11.00;99.90
7167;DHT22;3625;51.762;14.320;2022-10-04T18:29:37;10.90;99.90
7167;DHT22;3625;51.762;14.320;2022-10-04T18:32:15;10.90;99.90
7167;DHT22;3625;51.762;14.320;2022-10-04T18:35:00;10.90;99.90
7167;DHT22;3625;51.762;14.320;2022-10-04T18:40:16;10.80;99.90
7167;DHT22;3625;51.762;14.320;2022-10-04T18:42:50;10.80;99.90
7167;DHT22;3625;51.762;14.320;2022-10-04T18:45:23;10.70;99.90
7167;DHT22;3625;51.762;14.320;2022-10-04T18:47:56;10.70;99.90
7167;DHT22;3625;51.762;14.320;2022-10-04T18:50:35;10.60;99.90
7167;DHT22;3625;51.762;14.320;2022-10-04T18:53:30;10.60;99.90
7167;DHT22;3625;51.762;14.320;2022-10-04T18:56:12;10.50;99.90
7167;DHT22;3625;51.762;14.320;2022-10-04T18:58:52;10.50;99.90
7167;DHT22;3625;51.762;14.320;2022-10-04T19:01:55;10.50;99.90
7167;DHT22;3625;51.762;14.320;2022-10-04T19:04:41;10.40;99.90
7167;DHT22;3625;51.762;14.320;2022-10-04T19:07:16;10.40;99.90
7167;DHT22;3625;51.762;14.320;2022-10-04T19:10:00;10.40;99.90
7167;DHT22;3625;51.762;14.320;2022-10-04T19:12:45;10.40;99.90
7167;DHT22;3625;51.762;14.320;2022-10-04T19:15:37;10.40;99.90
7167;DHT22;3625;51.762;14.320;2022-10-04T19:18:21;10.30;99.90